sensor_id;sensor_type;location;lat;lon;timestamp;temperature;humidity
23120;DHT22;11729;50.836;4.330;2023-06-24T00:02:11;20.80;99.90
23120;DHT22;11729;50.836;4.330;2023-06-24T00:04:38;20.80;99.90
23120;DHT22;11729;50.836;4.330;2023-06-24T00:07:03;20.70;99.90
23120;DHT22;11729;50.836;4.330;2023-06-24T00:09:29;20.70;99.90
23120;DHT22;11729;50.836;4.330;2023-06-24T00:11:57;20.70;99.90
23120;DHT22;11729;50.836;4.330;2023-06-24T00:14:27;20.60;99.90
23120;DHT22;11729;50.836;4.330;2023-06-24T00:16:54;20.50;99.90
23120;DHT22;11729;50.836;4.330;2023-06-24T00:19:21;20.50;99.90
23120;DHT22;11729;50.836;4.330;2023-06-24T00:21:49;20.50;99.90
23120;DHT22;11729;50.836;4.330;2023-06-24T00:24:21;20.50;99.90
23120;DHT22;11729;50.836;4.330;2023-06-24T00:26:51;20.40;99.90
23120;DHT22;11729;50.836;4.330;2023-06-24T00:29:17;20.40;99.90
23120;DHT22;11729;50.836;4.330;2023-06-24T00:31:43;20.30;99.90
23120;DHT22;11729;50.836;4.330;2023-06-24T00:34:09;20.30;99.90
23120;DHT22;11729;50.836;4.330;2023-06-24T00:36:34;20.20;99.90
23120;DHT22;11729;50.836;4.330;2023-06-24T00:39:04;20.10;99.90
23120;DHT22;11729;50.836;4.330;2023-06-24T00:41:30;20.10;99.90
23120;DHT22;11729;50.836;4.330;2023-06-24T00:43:57;20.10;99.90
23120;DHT22;11729;50.836;4.330;2023-06-24T00:46:26;20.00;99.90
23120;DHT22;11729;50.836;4.330;2023-06-24T00:48:55;20.00;99.90
23120;DHT22;11729;50.836;4.330;2023-06-24T00:51:21;20.00;99.90
23120;DHT22;11729;50.836;4.330;2023-06-24T00:53:58;19.90;99.90
23120;DHT22;11729;50.836;4.330;2023-06-24T00:56:33;19.90;99.90
23120;DHT22;11729;50.836;4.330;2023-06-24T00:59:01;19.90;99.90
23120;DHT22;11729;50.836;4.330;2023-06-24T01:01:32;19.80;99.90
23120;DHT22;11729;50.836;4.330;2023-06-24T01:03:59;19.80;99.90
23120;DHT22;11729;50.836;4.330;2023-06-24T01:06:29;19.70;99.90
23120;DHT22;11729;50.836;4.330;2023-06-24T01:08:59;19.80;99.90
23120;DHT22;11729;50.836;4.330;2023-06-24T01:11:27;19.80;99.90
23120;DHT22;11729;50.836;4.330;2023-06-24T01:13:53;19.70;99.90
23120;DHT22;11729;50.836;4.330;2023-06-24T01:16:40;19.50;99.90
23120;DHT22;11729;50.836;4.330;2023-06-24T01:22:19;19.60;99.90
23120;DHT22;11729;50.836;4.330;2023-06-24T01:33:15;19.50;99.90
23120;DHT22;11729;50.836;4.330;2023-06-24T01:35:43;19.40;99.90
23120;DHT22;11729;50.836;4.330;2023-06-24T01:38:22;19.40;99.90
23120;DHT22;11729;50.836;4.330;2023-06-24T01:40:50;19.30;99.90
23120;DHT22;11729;50.836;4.330;2023-06-24T01:43:17;19.30;99.90
23120;DHT22;11729;50.836;4.330;2023-06-24T01:45:50;19.30;99.90
23120;DHT22;11729;50.836;4.330;2023-06-24T01:48:25;19.20;99.90
23120;DHT22;11729;50.836;4.330;2023-06-24T01:51:02;19.20;99.90
23120;DHT22;11729;50.836;4.330;2023-06-24T01:53:29;19.10;99.90
23120;DHT22;11729;50.836;4.330;2023-06-24T01:55:59;19.20;99.90
23120;DHT22;11729;50.836;4.330;2023-06-24T01:58:26;19.20;99.90
23120;DHT22;11729;50.836;4.330;2023-06-24T02:00:52;19.10;99.90
23120;DHT22;11729;50.836;4.330;2023-06-24T02:03:19;19.00;99.90
23120;DHT22;11729;50.836;4.330;2023-06-24T02:05:46;18.90;99.90
23120;DHT22;11729;50.836;4.330;2023-06-24T02:08:13;18.90;99.90
23120;DHT22;11729;50.836;4.330;2023-06-24T02:10:40;18.90;99.90
23120;DHT22;11729;50.836;4.330;2023-06-24T02:13:07;18.90;99.90
23120;DHT22;11729;50.836;4.330;2023-06-24T02:15:35;18.80;99.90
23120;DHT22;11729;50.836;4.330;2023-06-24T02:18:04;18.80;99.90
23120;DHT22;11729;50.836;4.330;2023-06-24T02:20:31;18.70;99.90
23120;DHT22;11729;50.836;4.330;2023-06-24T02:22:58;18.70;99.90
23120;DHT22;11729;50.836;4.330;2023-06-24T02:25:26;18.70;99.90
23120;DHT22;11729;50.836;4.330;2023-06-24T02:27:55;18.70;99.90
23120;DHT22;11729;50.836;4.330;2023-06-24T02:30:22;18.70;99.90
23120;DHT22;11729;50.836;4.330;2023-06-24T02:32:49;18.60;99.90
23120;DHT22;11729;50.836;4.330;2023-06-24T02:35:16;18.60;99.90
23120;DHT22;11729;50.836;4.330;2023-06-24T02:37:41;18.60;99.90
23120;DHT22;11729;50.836;4.330;2023-06-24T02:40:08;18.50;99.90
23120;DHT22;11729;50.836;4.330;2023-06-24T02:42:35;18.60;99.90
23120;DHT22;11729;50.836;4.330;2023-06-24T02:45:02;18.50;99.90
23120;DHT22;11729;50.836;4.330;2023-06-24T02:47:28;18.40;99.90
23120;DHT22;11729;50.836;4.330;2023-06-24T02:49:55;18.40;99.90
23120;DHT22;11729;50.836;4.330;2023-06-24T02:52:23;18.30;99.90
23120;DHT22;11729;50.836;4.330;2023-06-24T02:54:49;18.30;99.90
23120;DHT22;11729;50.836;4.330;2023-06-24T02:57:15;18.30;99.90
23120;DHT22;11729;50.836;4.330;2023-06-24T02:59:42;18.20;99.90
23120;DHT22;11729;50.836;4.330;2023-06-24T03:02:07;18.20;99.90
23120;DHT22;11729;50.836;4.330;2023-06-24T03:04:34;18.20;99.90
23120;DHT22;11729;50.836;4.330;2023-06-24T03:07:00;18.20;99.90
23120;DHT22;11729;50.836;4.330;2023-06-24T03:09:28;18.20;99.90
23120;DHT22;11729;50.836;4.330;2023-06-24T03:11:53;18.20;99.90
23120;DHT22;11729;50.836;4.330;2023-06-24T03:14:19;18.10;99.90
23120;DHT22;11729;50.836;4.330;2023-06-24T03:16:46;18.10;99.90
23120;DHT22;11729;50.836;4.330;2023-06-24T03:19:11;18.20;99.90
23120;DHT22;11729;50.836;4.330;2023-06-24T03:21:37;18.20;99.90
23120;DHT22;11729;50.836;4.330;2023-06-24T03:24:03;18.20;99.90
23120;DHT22;11729;50.836;4.330;2023-06-24T03:26:38;18.10;99.90
23120;DHT22;11729;50.836;4.330;2023-06-24T03:29:04;18.20;99.90
23120;DHT22;11729;50.836;4.330;2023-06-24T03:31:30;18.10;99.90
23120;DHT22;11729;50.836;4.330;2023-06-24T03:33:55;18.00;99.90
23120;DHT22;11729;50.836;4.330;2023-06-24T03:36:21;18.00;99.90
23120;DHT22;11729;50.836;4.330;2023-06-24T03:38:47;18.00;99.90
23120;DHT22;11729;50.836;4.330;2023-06-24T03:41:13;18.00;99.90
23120;DHT22;11729;50.836;4.330;2023-06-24T03:43:39;18.10;99.90
23120;DHT22;11729;50.836;4.330;2023-06-24T03:46:07;18.10;99.90
23120;DHT22;11729;50.836;4.330;2023-06-24T03:48:35;18.10;99.90
23120;DHT22;11729;50.836;4.330;2023-06-24T03:51:00;18.10;99.90
23120;DHT22;11729;50.836;4.330;2023-06-24T03:53:26;18.00;99.90
23120;DHT22;11729;50.836;4.330;2023-06-24T03:55:51;18.00;99.90
23120;DHT22;11729;50.836;4.330;2023-06-24T03:58:17;18.10;99.90
23120;DHT22;11729;50.836;4.330;2023-06-24T04:00:45;18.00;99.90
23120;DHT22;11729;50.836;4.330;2023-06-24T04:03:11;18.10;99.90
23120;DHT22;11729;50.836;4.330;2023-06-24T04:05:37;18.00;99.90
23120;DHT22;11729;50.836;4.330;2023-06-24T04:08:03;18.00;99.90
23120;DHT22;11729;50.836;4.330;2023-06-24T04:10:31;17.90;99.90
23120;DHT22;11729;50.836;4.330;2023-06-24T04:12:57;17.90;99.90
23120;DHT22;11729;50.836;4.330;2023-06-24T04:15:23;17.90;99.90
23120;DHT22;11729;50.836;4.330;2023-06-24T04:17:49;17.90;99.90
23120;DHT22;11729;50.836;4.330;2023-06-24T04:20:14;17.90;99.90
23120;DHT22;11729;50.836;4.330;2023-06-24T04:22:41;17.90;99.90
23120;DHT22;11729;50.836;4.330;2023-06-24T04:25:07;17.90;99.90
23120;DHT22;11729;50.836;4.330;2023-06-24T04:27:33;17.90;99.90
23120;DHT22;11729;50.836;4.330;2023-06-24T04:30:00;18.00;99.90
23120;DHT22;11729;50.836;4.330;2023-06-24T04:32:25;18.00;99.90
23120;DHT22;11729;50.836;4.330;2023-06-24T04:34:51;18.00;99.90
23120;DHT22;11729;50.836;4.330;2023-06-24T04:37:18;18.10;99.90
23120;DHT22;11729;50.836;4.330;2023-06-24T04:39:44;18.10;99.90
23120;DHT22;11729;50.836;4.330;2023-06-24T04:42:10;18.10;99.90
23120;DHT22;11729;50.836;4.330;2023-06-24T04:44:36;18.10;99.90
23120;DHT22;11729;50.836;4.330;2023-06-24T04:47:02;18.00;99.90
23120;DHT22;11729;50.836;4.330;2023-06-24T04:49:28;18.10;99.90
23120;DHT22;11729;50.836;4.330;2023-06-24T04:51:53;18.10;99.90
23120;DHT22;11729;50.836;4.330;2023-06-24T04:54:20;18.20;99.90
23120;DHT22;11729;50.836;4.330;2023-06-24T04:56:46;18.20;99.90
23120;DHT22;11729;50.836;4.330;2023-06-24T04:59:14;18.20;99.90
23120;DHT22;11729;50.836;4.330;2023-06-24T05:01:39;18.20;99.90
23120;DHT22;11729;50.836;4.330;2023-06-24T05:04:06;18.30;99.90
23120;DHT22;11729;50.836;4.330;2023-06-24T05:06:33;18.40;99.90
23120;DHT22;11729;50.836;4.330;2023-06-24T05:08:58;18.40;99.90
23120;DHT22;11729;50.836;4.330;2023-06-24T05:11:24;18.40;99.90
23120;DHT22;11729;50.836;4.330;2023-06-24T05:13:49;18.40;99.90
23120;DHT22;11729;50.836;4.330;2023-06-24T05:16:15;18.50;99.90
23120;DHT22;11729;50.836;4.330;2023-06-24T05:18:44;18.50;99.90
23120;DHT22;11729;50.836;4.330;2023-06-24T05:21:10;18.60;99.90
23120;DHT22;11729;50.836;4.330;2023-06-24T05:23:35;18.70;99.90
23120;DHT22;11729;50.836;4.330;2023-06-24T05:26:01;18.60;99.90
23120;DHT22;11729;50.836;4.330;2023-06-24T05:28:26;18.70;99.90
23120;DHT22;11729;50.836;4.330;2023-06-24T05:30:52;18.90;99.90
23120;DHT22;11729;50.836;4.330;2023-06-24T05:33:18;18.90;99.90
23120;DHT22;11729;50.836;4.330;2023-06-24T05:35:44;19.00;99.90
23120;DHT22;11729;50.836;4.330;2023-06-24T05:38:10;19.10;99.90
23120;DHT22;11729;50.836;4.330;2023-06-24T05:40:35;19.20;99.90
23120;DHT22;11729;50.836;4.330;2023-06-24T05:43:01;19.40;99.90
23120;DHT22;11729;50.836;4.330;2023-06-24T05:45:28;19.60;99.90
23120;DHT22;11729;50.836;4.330;2023-06-24T05:47:54;20.60;99.90
23120;DHT22;11729;50.836;4.330;2023-06-24T05:50:19;21.80;99.90
23120;DHT22;11729;50.836;4.330;2023-06-24T05:52:45;23.50;99.90
23120;DHT22;11729;50.836;4.330;2023-06-24T05:55:10;25.30;99.90
23120;DHT22;11729;50.836;4.330;2023-06-24T05:57:39;27.30;99.90
23120;DHT22;11729;50.836;4.330;2023-06-24T06:00:05;28.60;99.90
23120;DHT22;11729;50.836;4.330;2023-06-24T06:02:31;29.60;96.90
23120;DHT22;11729;50.836;4.330;2023-06-24T06:04:57;30.50;93.20
23120;DHT22;11729;50.836;4.330;2023-06-24T06:07:22;31.60;89.40
23120;DHT22;11729;50.836;4.330;2023-06-24T06:09:48;32.50;83.80
23120;DHT22;11729;50.836;4.330;2023-06-24T06:12:13;33.70;77.70
23120;DHT22;11729;50.836;4.330;2023-06-24T06:14:39;34.40;71.30
23120;DHT22;11729;50.836;4.330;2023-06-24T06:17:05;35.20;67.90
23120;DHT22;11729;50.836;4.330;2023-06-24T06:19:30;36.00;64.30
23120;DHT22;11729;50.836;4.330;2023-06-24T06:21:56;36.80;61.20
23120;DHT22;11729;50.836;4.330;2023-06-24T06:24:21;36.90;58.40
23120;DHT22;11729;50.836;4.330;2023-06-24T06:26:47;36.70;56.50
23120;DHT22;11729;50.836;4.330;2023-06-24T06:29:13;37.10;56.20
23120;DHT22;11729;50.836;4.330;2023-06-24T06:31:38;37.30;55.30
23120;DHT22;11729;50.836;4.330;2023-06-24T06:34:04;37.00;54.60
23120;DHT22;11729;50.836;4.330;2023-06-24T06:36:30;37.70;53.50
23120;DHT22;11729;50.836;4.330;2023-06-24T06:38:56;38.00;52.60
23120;DHT22;11729;50.836;4.330;2023-06-24T06:41:21;38.00;51.50
23120;DHT22;11729;50.836;4.330;2023-06-24T06:43:53;38.20;51.30
23120;DHT22;11729;50.836;4.330;2023-06-24T06:46:19;38.70;51.00
23120;DHT22;11729;50.836;4.330;2023-06-24T06:48:45;39.00;49.80
23120;DHT22;11729;50.836;4.330;2023-06-24T06:51:11;39.00;49.10
23120;DHT22;11729;50.836;4.330;2023-06-24T06:53:37;39.10;48.60
23120;DHT22;11729;50.836;4.330;2023-06-24T06:56:03;38.90;49.00
23120;DHT22;11729;50.836;4.330;2023-06-24T06:58:29;38.60;49.10
23120;DHT22;11729;50.836;4.330;2023-06-24T07:00:54;38.70;49.50
23120;DHT22;11729;50.836;4.330;2023-06-24T07:03:20;39.20;48.10
23120;DHT22;11729;50.836;4.330;2023-06-24T07:05:45;39.60;47.60
23120;DHT22;11729;50.836;4.330;2023-06-24T07:08:11;39.90;46.20
23120;DHT22;11729;50.836;4.330;2023-06-24T07:10:37;39.70;46.80
23120;DHT22;11729;50.836;4.330;2023-06-24T07:13:03;39.20;47.70
23120;DHT22;11729;50.836;4.330;2023-06-24T07:15:28;39.50;47.60
23120;DHT22;11729;50.836;4.330;2023-06-24T07:17:54;40.00;46.30
23120;DHT22;11729;50.836;4.330;2023-06-24T07:20:21;40.00;46.00
23120;DHT22;11729;50.836;4.330;2023-06-24T07:22:47;39.80;46.70
23120;DHT22;11729;50.836;4.330;2023-06-24T07:25:12;40.00;45.90
23120;DHT22;11729;50.836;4.330;2023-06-24T07:27:38;40.20;46.10
23120;DHT22;11729;50.836;4.330;2023-06-24T07:30:05;39.50;46.00
23120;DHT22;11729;50.836;4.330;2023-06-24T07:32:31;39.50;46.90
23120;DHT22;11729;50.836;4.330;2023-06-24T07:34:56;39.80;45.90
23120;DHT22;11729;50.836;4.330;2023-06-24T07:37:22;40.10;45.10
23120;DHT22;11729;50.836;4.330;2023-06-24T07:39:48;40.40;45.40
23120;DHT22;11729;50.836;4.330;2023-06-24T07:42:13;40.60;45.70
23120;DHT22;11729;50.836;4.330;2023-06-24T07:44:45;41.00;44.40
23120;DHT22;11729;50.836;4.330;2023-06-24T07:47:10;40.80;44.50
23120;DHT22;11729;50.836;4.330;2023-06-24T07:49:36;40.90;44.20
23120;DHT22;11729;50.836;4.330;2023-06-24T07:52:01;40.90;43.50
23120;DHT22;11729;50.836;4.330;2023-06-24T07:54:27;40.50;43.60
23120;DHT22;11729;50.836;4.330;2023-06-24T07:56:53;40.60;42.90
23120;DHT22;11729;50.836;4.330;2023-06-24T07:59:18;40.40;43.40
23120;DHT22;11729;50.836;4.330;2023-06-24T08:01:44;40.50;44.70
23120;DHT22;11729;50.836;4.330;2023-06-24T08:04:10;40.90;42.90
23120;DHT22;11729;50.836;4.330;2023-06-24T08:06:35;40.70;43.00
23120;DHT22;11729;50.836;4.330;2023-06-24T08:09:01;40.80;42.80
23120;DHT22;11729;50.836;4.330;2023-06-24T08:11:27;40.90;42.40
23120;DHT22;11729;50.836;4.330;2023-06-24T08:13:52;41.40;41.70
23120;DHT22;11729;50.836;4.330;2023-06-24T08:16:19;41.60;41.90
23120;DHT22;11729;50.836;4.330;2023-06-24T08:18:46;41.90;39.80
23120;DHT22;11729;50.836;4.330;2023-06-24T08:21:11;41.10;40.70
23120;DHT22;11729;50.836;4.330;2023-06-24T08:23:37;41.20;41.60
23120;DHT22;11729;50.836;4.330;2023-06-24T08:26:02;41.70;40.40
23120;DHT22;11729;50.836;4.330;2023-06-24T08:28:28;42.00;39.70
23120;DHT22;11729;50.836;4.330;2023-06-24T08:30:54;42.00;40.50
23120;DHT22;11729;50.836;4.330;2023-06-24T08:33:19;41.50;40.10
23120;DHT22;11729;50.836;4.330;2023-06-24T08:35:45;41.60;40.50
23120;DHT22;11729;50.836;4.330;2023-06-24T08:38:10;41.50;41.10
23120;DHT22;11729;50.836;4.330;2023-06-24T08:40:36;41.40;41.40
23120;DHT22;11729;50.836;4.330;2023-06-24T08:43:05;41.90;41.50
23120;DHT22;11729;50.836;4.330;2023-06-24T08:45:31;41.40;41.30
23120;DHT22;11729;50.836;4.330;2023-06-24T08:47:58;41.50;40.20
23120;DHT22;11729;50.836;4.330;2023-06-24T08:50:30;41.30;39.80
23120;DHT22;11729;50.836;4.330;2023-06-24T08:52:57;41.00;39.60
23120;DHT22;11729;50.836;4.330;2023-06-24T08:55:23;40.10;40.50
23120;DHT22;11729;50.836;4.330;2023-06-24T08:57:49;40.50;40.00
23120;DHT22;11729;50.836;4.330;2023-06-24T09:00:15;41.30;40.20
23120;DHT22;11729;50.836;4.330;2023-06-24T09:02:41;40.60;40.60
23120;DHT22;11729;50.836;4.330;2023-06-24T09:05:08;40.90;40.30
23120;DHT22;11729;50.836;4.330;2023-06-24T09:07:34;39.90;39.70
23120;DHT22;11729;50.836;4.330;2023-06-24T09:10:00;40.80;39.40
23120;DHT22;11729;50.836;4.330;2023-06-24T09:12:26;41.00;39.00
23120;DHT22;11729;50.836;4.330;2023-06-24T09:14:52;41.00;38.10
23120;DHT22;11729;50.836;4.330;2023-06-24T09:17:18;41.00;38.00
23120;DHT22;11729;50.836;4.330;2023-06-24T09:19:44;40.50;38.80
23120;DHT22;11729;50.836;4.330;2023-06-24T09:22:10;40.00;39.30
23120;DHT22;11729;50.836;4.330;2023-06-24T09:24:43;40.30;39.40
23120;DHT22;11729;50.836;4.330;2023-06-24T09:27:16;40.50;38.60
23120;DHT22;11729;50.836;4.330;2023-06-24T09:29:43;40.50;37.50
23120;DHT22;11729;50.836;4.330;2023-06-24T09:32:09;40.00;39.30
23120;DHT22;11729;50.836;4.330;2023-06-24T09:34:35;39.90;37.90
23120;DHT22;11729;50.836;4.330;2023-06-24T09:37:01;40.50;36.90
23120;DHT22;11729;50.836;4.330;2023-06-24T09:39:28;39.90;38.00
23120;DHT22;11729;50.836;4.330;2023-06-24T09:42:00;39.50;39.70
23120;DHT22;11729;50.836;4.330;2023-06-24T09:44:27;40.30;39.20
23120;DHT22;11729;50.836;4.330;2023-06-24T09:46:53;40.30;40.30
23120;DHT22;11729;50.836;4.330;2023-06-24T09:49:19;39.70;39.80
23120;DHT22;11729;50.836;4.330;2023-06-24T09:51:49;39.90;39.00
23120;DHT22;11729;50.836;4.330;2023-06-24T09:54:15;40.20;39.10
23120;DHT22;11729;50.836;4.330;2023-06-24T09:56:52;40.40;38.80
23120;DHT22;11729;50.836;4.330;2023-06-24T09:59:20;40.00;37.00
23120;DHT22;11729;50.836;4.330;2023-06-24T10:01:47;40.00;38.70
23120;DHT22;11729;50.836;4.330;2023-06-24T10:04:16;40.10;38.50
23120;DHT22;11729;50.836;4.330;2023-06-24T10:06:43;40.00;39.10
23120;DHT22;11729;50.836;4.330;2023-06-24T10:09:09;39.80;40.70
23120;DHT22;11729;50.836;4.330;2023-06-24T10:11:34;38.90;40.40
23120;DHT22;11729;50.836;4.330;2023-06-24T10:14:00;39.10;41.30
23120;DHT22;11729;50.836;4.330;2023-06-24T10:16:26;39.10;40.20
23120;DHT22;11729;50.836;4.330;2023-06-24T10:18:52;39.40;40.50
23120;DHT22;11729;50.836;4.330;2023-06-24T10:21:50;38.90;41.70
23120;DHT22;11729;50.836;4.330;2023-06-24T10:24:33;38.80;42.20
23120;DHT22;11729;50.836;4.330;2023-06-24T10:27:15;38.50;40.00
23120;DHT22;11729;50.836;4.330;2023-06-24T10:29:45;38.50;41.90
23120;DHT22;11729;50.836;4.330;2023-06-24T10:32:11;38.30;41.90
23120;DHT22;11729;50.836;4.330;2023-06-24T10:37:07;38.60;43.00
23120;DHT22;11729;50.836;4.330;2023-06-24T10:39:52;38.70;40.80
23120;DHT22;11729;50.836;4.330;2023-06-24T10:44:57;38.90;41.80
23120;DHT22;11729;50.836;4.330;2023-06-24T10:47:25;38.10;40.90
23120;DHT22;11729;50.836;4.330;2023-06-24T10:49:50;37.70;42.80
23120;DHT22;11729;50.836;4.330;2023-06-24T10:52:21;38.40;43.20
23120;DHT22;11729;50.836;4.330;2023-06-24T10:54:47;39.10;41.50
23120;DHT22;11729;50.836;4.330;2023-06-24T10:57:13;37.70;40.40
23120;DHT22;11729;50.836;4.330;2023-06-24T10:59:43;37.40;44.70
23120;DHT22;11729;50.836;4.330;2023-06-24T11:02:16;36.90;43.20
23120;DHT22;11729;50.836;4.330;2023-06-24T11:04:46;36.70;45.30
23120;DHT22;11729;50.836;4.330;2023-06-24T11:07:12;36.50;44.20
23120;DHT22;11729;50.836;4.330;2023-06-24T11:09:40;37.10;44.40
23120;DHT22;11729;50.836;4.330;2023-06-24T11:12:09;38.10;42.90
23120;DHT22;11729;50.836;4.330;2023-06-24T11:14:35;37.70;40.60
23120;DHT22;11729;50.836;4.330;2023-06-24T11:17:02;38.40;42.10
23120;DHT22;11729;50.836;4.330;2023-06-24T11:19:29;38.20;41.70
23120;DHT22;11729;50.836;4.330;2023-06-24T11:21:54;38.50;43.20
23120;DHT22;11729;50.836;4.330;2023-06-24T11:24:20;39.00;40.60
23120;DHT22;11729;50.836;4.330;2023-06-24T11:26:45;38.50;39.60
23120;DHT22;11729;50.836;4.330;2023-06-24T11:29:11;38.40;41.30
23120;DHT22;11729;50.836;4.330;2023-06-24T11:31:37;38.60;41.30
23120;DHT22;11729;50.836;4.330;2023-06-24T11:34:03;38.50;41.20
23120;DHT22;11729;50.836;4.330;2023-06-24T11:36:29;38.60;42.30
23120;DHT22;11729;50.836;4.330;2023-06-24T11:38:55;38.60;40.90
23120;DHT22;11729;50.836;4.330;2023-06-24T11:41:21;39.10;39.40
23120;DHT22;11729;50.836;4.330;2023-06-24T11:43:47;40.00;40.70
23120;DHT22;11729;50.836;4.330;2023-06-24T11:46:30;39.30;39.20
23120;DHT22;11729;50.836;4.330;2023-06-24T11:49:07;39.50;40.20
23120;DHT22;11729;50.836;4.330;2023-06-24T11:51:34;40.00;40.30
23120;DHT22;11729;50.836;4.330;2023-06-24T11:54:02;39.90;38.30
23120;DHT22;11729;50.836;4.330;2023-06-24T11:56:40;39.40;38.90
23120;DHT22;11729;50.836;4.330;2023-06-24T11:59:06;40.00;39.20
23120;DHT22;11729;50.836;4.330;2023-06-24T12:01:32;40.50;38.40
23120;DHT22;11729;50.836;4.330;2023-06-24T12:04:01;40.70;38.40
23120;DHT22;11729;50.836;4.330;2023-06-24T12:06:27;40.60;40.60
23120;DHT22;11729;50.836;4.330;2023-06-24T12:08:52;40.50;38.10
23120;DHT22;11729;50.836;4.330;2023-06-24T12:11:18;41.20;37.10
23120;DHT22;11729;50.836;4.330;2023-06-24T12:13:44;40.60;38.60
23120;DHT22;11729;50.836;4.330;2023-06-24T12:16:10;41.20;36.50
23120;DHT22;11729;50.836;4.330;2023-06-24T12:18:35;41.70;36.40
23120;DHT22;11729;50.836;4.330;2023-06-24T12:21:01;42.30;37.40
23120;DHT22;11729;50.836;4.330;2023-06-24T12:23:26;42.40;38.60
23120;DHT22;11729;50.836;4.330;2023-06-24T12:25:52;42.20;36.90
23120;DHT22;11729;50.836;4.330;2023-06-24T12:28:17;42.00;36.20
23120;DHT22;11729;50.836;4.330;2023-06-24T12:30:43;42.00;36.30
23120;DHT22;11729;50.836;4.330;2023-06-24T12:33:08;41.90;37.40
23120;DHT22;11729;50.836;4.330;2023-06-24T12:35:34;42.00;38.60
23120;DHT22;11729;50.836;4.330;2023-06-24T12:37:59;42.20;35.90
23120;DHT22;11729;50.836;4.330;2023-06-24T12:40:25;42.40;36.00
23120;DHT22;11729;50.836;4.330;2023-06-24T12:42:51;42.60;36.20
23120;DHT22;11729;50.836;4.330;2023-06-24T12:45:16;42.90;35.00
23120;DHT22;11729;50.836;4.330;2023-06-24T12:47:42;43.00;35.40
23120;DHT22;11729;50.836;4.330;2023-06-24T12:50:08;43.00;33.90
23120;DHT22;11729;50.836;4.330;2023-06-24T12:52:34;42.50;35.20
23120;DHT22;11729;50.836;4.330;2023-06-24T12:55:00;42.00;34.90
23120;DHT22;11729;50.836;4.330;2023-06-24T12:57:25;41.60;35.30
23120;DHT22;11729;50.836;4.330;2023-06-24T12:59:51;42.20;36.50
23120;DHT22;11729;50.836;4.330;2023-06-24T13:02:17;42.60;36.60
23120;DHT22;11729;50.836;4.330;2023-06-24T13:04:42;42.80;35.30
23120;DHT22;11729;50.836;4.330;2023-06-24T13:07:08;42.70;36.10
23120;DHT22;11729;50.836;4.330;2023-06-24T13:09:36;43.00;33.80
23120;DHT22;11729;50.836;4.330;2023-06-24T13:12:01;42.90;34.90
23120;DHT22;11729;50.836;4.330;2023-06-24T13:14:27;43.10;33.10
23120;DHT22;11729;50.836;4.330;2023-06-24T13:16:54;43.00;34.30
23120;DHT22;11729;50.836;4.330;2023-06-24T13:19:20;43.40;34.20
23120;DHT22;11729;50.836;4.330;2023-06-24T13:21:46;43.40;33.90
23120;DHT22;11729;50.836;4.330;2023-06-24T13:24:12;43.60;34.20
23120;DHT22;11729;50.836;4.330;2023-06-24T13:26:38;42.80;34.70
23120;DHT22;11729;50.836;4.330;2023-06-24T13:29:04;42.50;34.60
23120;DHT22;11729;50.836;4.330;2023-06-24T13:31:29;42.60;34.20
23120;DHT22;11729;50.836;4.330;2023-06-24T13:33:55;42.00;33.80
23120;DHT22;11729;50.836;4.330;2023-06-24T13:36:34;40.70;37.50
23120;DHT22;11729;50.836;4.330;2023-06-24T13:39:02;39.20;39.20
23120;DHT22;11729;50.836;4.330;2023-06-24T13:41:28;37.80;38.40
23120;DHT22;11729;50.836;4.330;2023-06-24T13:43:56;36.30;40.30
23120;DHT22;11729;50.836;4.330;2023-06-24T13:46:22;34.50;43.30
23120;DHT22;11729;50.836;4.330;2023-06-24T13:48:48;33.80;44.70
23120;DHT22;11729;50.836;4.330;2023-06-24T13:51:15;33.50;45.90
23120;DHT22;11729;50.836;4.330;2023-06-24T13:53:41;33.20;46.10
23120;DHT22;11729;50.836;4.330;2023-06-24T13:56:07;32.70;46.40
23120;DHT22;11729;50.836;4.330;2023-06-24T13:58:33;32.10;48.10
23120;DHT22;11729;50.836;4.330;2023-06-24T14:00:59;31.70;48.90
23120;DHT22;11729;50.836;4.330;2023-06-24T14:03:25;31.60;48.80
23120;DHT22;11729;50.836;4.330;2023-06-24T14:05:51;31.70;48.00
23120;DHT22;11729;50.836;4.330;2023-06-24T14:08:16;31.60;48.30
23120;DHT22;11729;50.836;4.330;2023-06-24T14:10:42;31.40;48.80
23120;DHT22;11729;50.836;4.330;2023-06-24T14:13:08;31.30;50.10
23120;DHT22;11729;50.836;4.330;2023-06-24T14:15:33;31.40;51.40
23120;DHT22;11729;50.836;4.330;2023-06-24T14:18:00;31.20;51.00
23120;DHT22;11729;50.836;4.330;2023-06-24T14:20:25;31.20;52.00
23120;DHT22;11729;50.836;4.330;2023-06-24T14:22:51;31.20;50.20
23120;DHT22;11729;50.836;4.330;2023-06-24T14:25:17;30.90;49.50
23120;DHT22;11729;50.836;4.330;2023-06-24T14:27:42;30.40;51.20
23120;DHT22;11729;50.836;4.330;2023-06-24T14:30:08;30.50;49.80
23120;DHT22;11729;50.836;4.330;2023-06-24T14:32:34;30.40;50.90
23120;DHT22;11729;50.836;4.330;2023-06-24T14:35:00;30.50;52.20
23120;DHT22;11729;50.836;4.330;2023-06-24T14:37:25;30.60;52.20
23120;DHT22;11729;50.836;4.330;2023-06-24T14:39:51;30.60;51.70
23120;DHT22;11729;50.836;4.330;2023-06-24T14:42:16;30.50;49.90
23120;DHT22;11729;50.836;4.330;2023-06-24T14:44:42;30.50;51.40
23120;DHT22;11729;50.836;4.330;2023-06-24T14:47:08;30.70;50.00
23120;DHT22;11729;50.836;4.330;2023-06-24T14:49:33;30.60;48.50
23120;DHT22;11729;50.836;4.330;2023-06-24T14:51:59;30.50;49.20
23120;DHT22;11729;50.836;4.330;2023-06-24T14:54:24;30.40;48.80
23120;DHT22;11729;50.836;4.330;2023-06-24T14:56:50;30.40;50.80
23120;DHT22;11729;50.836;4.330;2023-06-24T14:59:15;30.50;51.30
23120;DHT22;11729;50.836;4.330;2023-06-24T15:01:41;30.50;51.90
23120;DHT22;11729;50.836;4.330;2023-06-24T15:04:08;30.50;51.90
23120;DHT22;11729;50.836;4.330;2023-06-24T15:06:34;30.50;54.00
23120;DHT22;11729;50.836;4.330;2023-06-24T15:08:59;30.70;51.30
23120;DHT22;11729;50.836;4.330;2023-06-24T15:11:25;30.70;49.90
23120;DHT22;11729;50.836;4.330;2023-06-24T15:13:51;30.60;51.00
23120;DHT22;11729;50.836;4.330;2023-06-24T15:16:16;30.40;50.40
23120;DHT22;11729;50.836;4.330;2023-06-24T15:18:46;30.20;50.80
23120;DHT22;11729;50.836;4.330;2023-06-24T15:21:15;30.10;53.60
23120;DHT22;11729;50.836;4.330;2023-06-24T15:23:41;29.90;53.80
23120;DHT22;11729;50.836;4.330;2023-06-24T15:26:07;30.00;52.70
23120;DHT22;11729;50.836;4.330;2023-06-24T15:28:33;30.20;50.00
23120;DHT22;11729;50.836;4.330;2023-06-24T15:31:02;30.20;50.90
23120;DHT22;11729;50.836;4.330;2023-06-24T15:33:27;30.10;52.40
23120;DHT22;11729;50.836;4.330;2023-06-24T15:35:53;30.00;52.10
23120;DHT22;11729;50.836;4.330;2023-06-24T15:38:20;30.10;51.40
23120;DHT22;11729;50.836;4.330;2023-06-24T15:40:45;30.00;51.40
23120;DHT22;11729;50.836;4.330;2023-06-24T15:43:11;30.00;51.40
23120;DHT22;11729;50.836;4.330;2023-06-24T15:45:37;30.20;51.70